sensor_id;sensor_type;location;lat;lon;timestamp;P1;durP1;ratioP1;P2;durP2;ratioP2
33864;SDS011;20159;51.072;13.526;2023-02-22T00:00:19;8.07;;;6.35;;
33864;SDS011;20159;51.072;13.526;2023-02-22T00:03:04;7.25;;;6.20;;
33864;SDS011;20159;51.072;13.526;2023-02-22T00:05:31;8.35;;;6.40;;
33864;SDS011;20159;51.072;13.526;2023-02-22T00:07:57;8.00;;;6.45;;
33864;SDS011;20159;51.072;13.526;2023-02-22T00:10:25;6.85;;;6.15;;
33864;SDS011;20159;51.072;13.526;2023-02-22T00:12:51;7.30;;;6.22;;
33864;SDS011;20159;51.072;13.526;2023-02-22T00:15:20;8.07;;;6.90;;
33864;SDS011;20159;51.072;13.526;2023-02-22T00:17:47;8.52;;;6.57;;
33864;SDS011;20159;51.072;13.526;2023-02-22T00:20:13;9.73;;;6.60;;
33864;SDS011;20159;51.072;13.526;2023-02-22T00:22:41;7.82;;;6.63;;
33864;SDS011;20159;51.072;13.526;2023-02-22T00:25:11;9.15;;;6.88;;
33864;SDS011;20159;51.072;13.526;2023-02-22T00:27:37;7.95;;;6.63;;
33864;SDS011;20159;51.072;13.526;2023-02-22T00:30:04;8.15;;;6.35;;
33864;SDS011;20159;51.072;13.526;2023-02-22T00:32:30;8.88;;;6.50;;
33864;SDS011;20159;51.072;13.526;2023-02-22T00:34:56;7.85;;;6.13;;
33864;SDS011;20159;51.072;13.526;2023-02-22T00:37:21;7.80;;;5.90;;
33864;SDS011;20159;51.072;13.526;2023-02-22T00:39:47;7.07;;;5.70;;
33864;SDS011;20159;51.072;13.526;2023-02-22T00:42:14;8.23;;;6.07;;
33864;SDS011;20159;51.072;13.526;2023-02-22T00:44:41;7.05;;;6.22;;
33864;SDS011;20159;51.072;13.526;2023-02-22T00:47:07;7.63;;;6.18;;
33864;SDS011;20159;51.072;13.526;2023-02-22T00:49:33;8.93;;;6.43;;
33864;SDS011;20159;51.072;13.526;2023-02-22T00:51:59;8.75;;;6.80;;
33864;SDS011;20159;51.072;13.526;2023-02-22T00:54:24;10.02;;;6.80;;
33864;SDS011;20159;51.072;13.526;2023-02-22T00:56:50;7.55;;;6.38;;
33864;SDS011;20159;51.072;13.526;2023-02-22T00:59:16;9.02;;;6.80;;
33864;SDS011;20159;51.072;13.526;2023-02-22T01:01:41;7.68;;;6.50;;
33864;SDS011;20159;51.072;13.526;2023-02-22T01:04:07;10.65;;;7.50;;
33864;SDS011;20159;51.072;13.526;2023-02-22T01:06:34;9.77;;;7.22;;
33864;SDS011;20159;51.072;13.526;2023-02-22T01:08:59;9.93;;;7.70;;
33864;SDS011;20159;51.072;13.526;2023-02-22T01:11:28;10.38;;;7.75;;
33864;SDS011;20159;51.072;13.526;2023-02-22T01:13:54;9.25;;;7.80;;
33864;SDS011;20159;51.072;13.526;2023-02-22T01:16:21;9.68;;;7.53;;
33864;SDS011;20159;51.072;13.526;2023-02-22T01:18:47;11.23;;;8.52;;
33864;SDS011;20159;51.072;13.526;2023-02-22T01:21:13;11.27;;;8.48;;
33864;SDS011;20159;51.072;13.526;2023-02-22T01:23:38;10.40;;;7.90;;
33864;SDS011;20159;51.072;13.526;2023-02-22T01:26:04;10.52;;;8.13;;
33864;SDS011;20159;51.072;13.526;2023-02-22T01:28:32;9.15;;;7.63;;
33864;SDS011;20159;51.072;13.526;2023-02-22T01:30:58;11.75;;;8.48;;
33864;SDS011;20159;51.072;13.526;2023-02-22T01:33:25;9.75;;;7.35;;
33864;SDS011;20159;51.072;13.526;2023-02-22T01:35:51;9.85;;;7.80;;
33864;SDS011;20159;51.072;13.526;2023-02-22T01:38:16;10.45;;;8.13;;
33864;SDS011;20159;51.072;13.526;2023-02-22T01:40:43;10.88;;;7.95;;
33864;SDS011;20159;51.072;13.526;2023-02-22T01:43:18;10.73;;;7.95;;
33864;SDS011;20159;51.072;13.526;2023-02-22T01:45:47;10.10;;;7.72;;
33864;SDS011;20159;51.072;13.526;2023-02-22T01:51:15;10.20;;;7.65;;
33864;SDS011;20159;51.072;13.526;2023-02-22T01:53:45;10.02;;;8.20;;
33864;SDS011;20159;51.072;13.526;2023-02-22T01:56:32;10.32;;;7.88;;
33864;SDS011;20159;51.072;13.526;2023-02-22T01:59:02;10.05;;;6.93;;
33864;SDS011;20159;51.072;13.526;2023-02-22T02:01:33;10.00;;;8.00;;
33864;SDS011;20159;51.072;13.526;2023-02-22T02:04:01;9.52;;;7.95;;
33864;SDS011;20159;51.072;13.526;2023-02-22T02:06:32;9.55;;;7.45;;
33864;SDS011;20159;51.072;13.526;2023-02-22T02:11:36;10.35;;;8.10;;
33864;SDS011;20159;51.072;13.526;2023-02-22T02:14:04;9.90;;;8.07;;
33864;SDS011;20159;51.072;13.526;2023-02-22T02:16:41;12.20;;;8.40;;
33864;SDS011;20159;51.072;13.526;2023-02-22T02:19:22;9.70;;;7.55;;
33864;SDS011;20159;51.072;13.526;2023-02-22T02:27:45;10.43;;;8.23;;
33864;SDS011;20159;51.072;13.526;2023-02-22T02:31:00;8.77;;;7.30;;
33864;SDS011;20159;51.072;13.526;2023-02-22T02:33:49;8.82;;;7.32;;
33864;SDS011;20159;51.072;13.526;2023-02-22T02:39:09;10.88;;;8.60;;
33864;SDS011;20159;51.072;13.526;2023-02-22T02:42:09;10.60;;;8.43;;
33864;SDS011;20159;51.072;13.526;2023-02-22T02:44:43;12.70;;;8.95;;
33864;SDS011;20159;51.072;13.526;2023-02-22T02:47:19;11.07;;;8.05;;
33864;SDS011;20159;51.072;13.526;2023-02-22T02:49:50;10.02;;;8.13;;
33864;SDS011;20159;51.072;13.526;2023-02-22T02:52:26;11.77;;;7.80;;
33864;SDS011;20159;51.072;13.526;2023-02-22T02:54:54;11.93;;;8.70;;
33864;SDS011;20159;51.072;13.526;2023-02-22T02:57:21;10.15;;;8.45;;
33864;SDS011;20159;51.072;13.526;2023-02-22T02:59:46;10.77;;;8.63;;
33864;SDS011;20159;51.072;13.526;2023-02-22T03:02:21;14.15;;;8.98;;
33864;SDS011;20159;51.072;13.526;2023-02-22T03:05:07;10.77;;;8.30;;
33864;SDS011;20159;51.072;13.526;2023-02-22T03:08:08;11.32;;;9.07;;
33864;SDS011;20159;51.072;13.526;2023-02-22T03:10:53;11.85;;;8.50;;
33864;SDS011;20159;51.072;13.526;2023-02-22T03:13:41;10.65;;;8.55;;
33864;SDS011;20159;51.072;13.526;2023-02-22T03:23:58;10.15;;;8.38;;
33864;SDS011;20159;51.072;13.526;2023-02-22T03:26:41;10.63;;;8.02;;
33864;SDS011;20159;51.072;13.526;2023-02-22T03:29:13;9.75;;;8.15;;
33864;SDS011;20159;51.072;13.526;2023-02-22T03:31:43;9.80;;;7.88;;
33864;SDS011;20159;51.072;13.526;2023-02-22T03:34:18;13.82;;;8.65;;
33864;SDS011;20159;51.072;13.526;2023-02-22T03:36:49;10.48;;;7.75;;
33864;SDS011;20159;51.072;13.526;2023-02-22T03:39:20;10.80;;;8.35;;
33864;SDS011;20159;51.072;13.526;2023-02-22T03:41:55;10.15;;;8.43;;
33864;SDS011;20159;51.072;13.526;2023-02-22T03:44:28;12.70;;;8.10;;
33864;SDS011;20159;51.072;13.526;2023-02-22T03:46:56;10.93;;;8.23;;
33864;SDS011;20159;51.072;13.526;2023-02-22T03:49:30;10.13;;;8.43;;
33864;SDS011;20159;51.072;13.526;2023-02-22T03:52:21;9.77;;;7.70;;
33864;SDS011;20159;51.072;13.526;2023-02-22T03:54:47;12.10;;;8.27;;
33864;SDS011;20159;51.072;13.526;2023-02-22T03:57:24;10.00;;;7.63;;
33864;SDS011;20159;51.072;13.526;2023-02-22T03:59:51;11.32;;;7.80;;
33864;SDS011;20159;51.072;13.526;2023-02-22T04:02:17;10.88;;;8.45;;
33864;SDS011;20159;51.072;13.526;2023-02-22T04:04:43;10.88;;;7.97;;
33864;SDS011;20159;51.072;13.526;2023-02-22T04:07:10;10.10;;;7.75;;
33864;SDS011;20159;51.072;13.526;2023-02-22T04:09:35;11.18;;;8.65;;
33864;SDS011;20159;51.072;13.526;2023-02-22T04:12:01;10.40;;;7.85;;
33864;SDS011;20159;51.072;13.526;2023-02-22T04:14:28;11.30;;;8.65;;
33864;SDS011;20159;51.072;13.526;2023-02-22T04:16:53;10.75;;;8.45;;
33864;SDS011;20159;51.072;13.526;2023-02-22T04:19:19;9.63;;;7.47;;
33864;SDS011;20159;51.072;13.526;2023-02-22T04:21:45;10.25;;;7.78;;
33864;SDS011;20159;51.072;13.526;2023-02-22T04:24:11;11.48;;;9.40;;
33864;SDS011;20159;51.072;13.526;2023-02-22T04:26:36;10.93;;;8.70;;
33864;SDS011;20159;51.072;13.526;2023-02-22T04:29:02;10.60;;;8.10;;
33864;SDS011;20159;51.072;13.526;2023-02-22T04:31:29;11.95;;;8.80;;
33864;SDS011;20159;51.072;13.526;2023-02-22T04:33:55;11.70;;;8.88;;
33864;SDS011;20159;51.072;13.526;2023-02-22T04:36:20;12.00;;;9.35;;
33864;SDS011;20159;51.072;13.526;2023-02-22T04:38:46;10.57;;;8.80;;
33864;SDS011;20159;51.072;13.526;2023-02-22T04:41:12;11.63;;;8.45;;
33864;SDS011;20159;51.072;13.526;2023-02-22T04:43:37;10.52;;;8.52;;
33864;SDS011;20159;51.072;13.526;2023-02-22T04:46:03;10.05;;;8.07;;
33864;SDS011;20159;51.072;13.526;2023-02-22T04:48:29;11.43;;;8.43;;
33864;SDS011;20159;51.072;13.526;2023-02-22T04:50:54;11.15;;;8.70;;
33864;SDS011;20159;51.072;13.526;2023-02-22T04:53:20;10.18;;;8.63;;
33864;SDS011;20159;51.072;13.526;2023-02-22T04:55:46;15.10;;;9.13;;
33864;SDS011;20159;51.072;13.526;2023-02-22T04:58:11;11.38;;;8.52;;
33864;SDS011;20159;51.072;13.526;2023-02-22T05:00:37;10.30;;;8.00;;
33864;SDS011;20159;51.072;13.526;2023-02-22T05:03:02;10.13;;;8.45;;
33864;SDS011;20159;51.072;13.526;2023-02-22T05:05:28;12.23;;;8.98;;
33864;SDS011;20159;51.072;13.526;2023-02-22T05:07:53;11.02;;;8.77;;
33864;SDS011;20159;51.072;13.526;2023-02-22T05:10:19;9.90;;;8.35;;
33864;SDS011;20159;51.072;13.526;2023-02-22T05:12:45;12.05;;;8.65;;
33864;SDS011;20159;51.072;13.526;2023-02-22T05:15:14;10.48;;;8.15;;
33864;SDS011;20159;51.072;13.526;2023-02-22T05:17:42;10.55;;;8.25;;
33864;SDS011;20159;51.072;13.526;2023-02-22T05:20:09;10.68;;;8.15;;
33864;SDS011;20159;51.072;13.526;2023-02-22T05:22:45;9.75;;;7.72;;
33864;SDS011;20159;51.072;13.526;2023-02-22T05:25:11;12.75;;;9.38;;
33864;SDS011;20159;51.072;13.526;2023-02-22T05:27:36;11.18;;;8.60;;
33864;SDS011;20159;51.072;13.526;2023-02-22T05:30:02;10.60;;;8.50;;
33864;SDS011;20159;51.072;13.526;2023-02-22T05:32:28;10.75;;;9.13;;
33864;SDS011;20159;51.072;13.526;2023-02-22T05:34:54;13.30;;;9.93;;
33864;SDS011;20159;51.072;13.526;2023-02-22T05:37:19;12.63;;;9.50;;
33864;SDS011;20159;51.072;13.526;2023-02-22T05:39:45;11.32;;;9.68;;
33864;SDS011;20159;51.072;13.526;2023-02-22T05:42:10;12.45;;;10.20;;
33864;SDS011;20159;51.072;13.526;2023-02-22T05:44:36;11.25;;;9.50;;
33864;SDS011;20159;51.072;13.526;2023-02-22T05:47:01;13.18;;;10.02;;
33864;SDS011;20159;51.072;13.526;2023-02-22T05:49:27;13.63;;;9.98;;
33864;SDS011;20159;51.072;13.526;2023-02-22T05:51:52;13.07;;;10.30;;
33864;SDS011;20159;51.072;13.526;2023-02-22T05:54:23;12.30;;;9.50;;
33864;SDS011;20159;51.072;13.526;2023-02-22T05:56:48;13.32;;;10.55;;
33864;SDS011;20159;51.072;13.526;2023-02-22T05:59:14;13.60;;;10.07;;
33864;SDS011;20159;51.072;13.526;2023-02-22T06:01:39;13.70;;;10.00;;
33864;SDS011;20159;51.072;13.526;2023-02-22T06:04:05;12.02;;;9.68;;
33864;SDS011;20159;51.072;13.526;2023-02-22T06:06:30;12.27;;;9.68;;
33864;SDS011;20159;51.072;13.526;2023-02-22T06:08:56;12.27;;;10.30;;
33864;SDS011;20159;51.072;13.526;2023-02-22T06:11:21;12.98;;;10.65;;
33864;SDS011;20159;51.072;13.526;2023-02-22T06:13:50;13.38;;;10.30;;
33864;SDS011;20159;51.072;13.526;2023-02-22T06:16:16;14.27;;;10.80;;
33864;SDS011;20159;51.072;13.526;2023-02-22T06:18:42;13.30;;;10.57;;
33864;SDS011;20159;51.072;13.526;2023-02-22T06:21:08;11.95;;;9.77;;
33864;SDS011;20159;51.072;13.526;2023-02-22T06:23:33;12.75;;;10.35;;
33864;SDS011;20159;51.072;13.526;2023-02-22T06:25:59;15.63;;;11.48;;
33864;SDS011;20159;51.072;13.526;2023-02-22T06:28:24;13.18;;;10.68;;
33864;SDS011;20159;51.072;13.526;2023-02-22T06:30:50;14.48;;;11.38;;
33864;SDS011;20159;51.072;13.526;2023-02-22T06:33:16;16.25;;;12.23;;
33864;SDS011;20159;51.072;13.526;2023-02-22T06:35:41;15.85;;;12.30;;
33864;SDS011;20159;51.072;13.526;2023-02-22T06:38:07;13.63;;;11.30;;
33864;SDS011;20159;51.072;13.526;2023-02-22T06:40:32;13.27;;;10.82;;
33864;SDS011;20159;51.072;13.526;2023-02-22T06:42:58;14.50;;;11.93;;
33864;SDS011;20159;51.072;13.526;2023-02-22T06:45:24;14.38;;;11.18;;
33864;SDS011;20159;51.072;13.526;2023-02-22T06:47:49;14.98;;;11.00;;
33864;SDS011;20159;51.072;13.526;2023-02-22T06:50:20;12.13;;;9.95;;
33864;SDS011;20159;51.072;13.526;2023-02-22T06:52:54;12.45;;;9.15;;
33864;SDS011;20159;51.072;13.526;2023-02-22T06:55:21;12.90;;;9.15;;
33864;SDS011;20159;51.072;13.526;2023-02-22T06:57:49;13.20;;;9.88;;
33864;SDS011;20159;51.072;13.526;2023-02-22T07:00:16;13.27;;;10.60;;
33864;SDS011;20159;51.072;13.526;2023-02-22T07:02:42;15.45;;;12.07;;
33864;SDS011;20159;51.072;13.526;2023-02-22T07:05:09;14.40;;;11.77;;
33864;SDS011;20159;51.072;13.526;2023-02-22T07:07:36;17.83;;;12.70;;
33864;SDS011;20159;51.072;13.526;2023-02-22T07:10:03;15.63;;;12.07;;
33864;SDS011;20159;51.072;13.526;2023-02-22T07:12:29;14.20;;;11.90;;
33864;SDS011;20159;51.072;13.526;2023-02-22T07:14:55;14.43;;;12.02;;
33864;SDS011;20159;51.072;13.526;2023-02-22T07:17:20;13.75;;;10.70;;
33864;SDS011;20159;51.072;13.526;2023-02-22T07:19:46;14.55;;;12.13;;
33864;SDS011;20159;51.072;13.526;2023-02-22T07:22:11;13.52;;;11.00;;
33864;SDS011;20159;51.072;13.526;2023-02-22T07:24:37;14.32;;;11.38;;
33864;SDS011;20159;51.072;13.526;2023-02-22T07:27:04;14.27;;;11.45;;
33864;SDS011;20159;51.072;13.526;2023-02-22T07:29:30;14.75;;;11.75;;
33864;SDS011;20159;51.072;13.526;2023-02-22T07:31:55;15.10;;;11.38;;
33864;SDS011;20159;51.072;13.526;2023-02-22T07:34:22;14.25;;;10.85;;
33864;SDS011;20159;51.072;13.526;2023-02-22T07:36:48;14.70;;;10.40;;
33864;SDS011;20159;51.072;13.526;2023-02-22T07:39:13;13.82;;;10.60;;
33864;SDS011;20159;51.072;13.526;2023-02-22T07:41:39;13.75;;;10.98;;
33864;SDS011;20159;51.072;13.526;2023-02-22T07:44:04;13.63;;;10.80;;
33864;SDS011;20159;51.072;13.526;2023-02-22T07:46:30;15.40;;;11.18;;
33864;SDS011;20159;51.072;13.526;2023-02-22T07:48:55;12.95;;;10.90;;
33864;SDS011;20159;51.072;13.526;2023-02-22T07:51:21;14.85;;;12.02;;
33864;SDS011;20159;51.072;13.526;2023-02-22T07:53:47;16.92;;;12.05;;
33864;SDS011;20159;51.072;13.526;2023-02-22T07:56:12;13.98;;;11.68;;
33864;SDS011;20159;51.072;13.526;2023-02-22T07:58:38;13.38;;;11.63;;
33864;SDS011;20159;51.072;13.526;2023-02-22T08:01:03;16.17;;;11.93;;
33864;SDS011;20159;51.072;13.526;2023-02-22T08:03:30;14.73;;;11.70;;
33864;SDS011;20159;51.072;13.526;2023-02-22T08:06:00;18.58;;;12.60;;
33864;SDS011;20159;51.072;13.526;2023-02-22T08:08:27;16.13;;;11.88;;
33864;SDS011;20159;51.072;13.526;2023-02-22T08:10:52;15.60;;;11.75;;
33864;SDS011;20159;51.072;13.526;2023-02-22T08:13:18;14.18;;;11.35;;
33864;SDS011;20159;51.072;13.526;2023-02-22T08:15:46;17.27;;;11.75;;
33864;SDS011;20159;51.072;13.526;2023-02-22T08:18:13;15.25;;;11.85;;
33864;SDS011;20159;51.072;13.526;2023-02-22T08:20:40;15.50;;;11.35;;
33864;SDS011;20159;51.072;13.526;2023-02-22T08:23:08;14.52;;;11.18;;
33864;SDS011;20159;51.072;13.526;2023-02-22T08:25:34;14.05;;;11.07;;
33864;SDS011;20159;51.072;13.526;2023-02-22T08:28:02;17.00;;;11.90;;
33864;SDS011;20159;51.072;13.526;2023-02-22T08:30:33;15.23;;;11.85;;
33864;SDS011;20159;51.072;13.526;2023-02-22T08:32:59;14.75;;;11.75;;
33864;SDS011;20159;51.072;13.526;2023-02-22T08:35:27;16.50;;;12.10;;
33864;SDS011;20159;51.072;13.526;2023-02-22T08:37:55;17.27;;;11.65;;
33864;SDS011;20159;51.072;13.526;2023-02-22T08:40:23;14.80;;;10.63;;
33864;SDS011;20159;51.072;13.526;2023-02-22T08:42:51;15.60;;;11.10;;
33864;SDS011;20159;51.072;13.526;2023-02-22T08:45:18;14.02;;;11.07;;
33864;SDS011;20159;51.072;13.526;2023-02-22T08:47:44;13.55;;;11.25;;
33864;SDS011;20159;51.072;13.526;2023-02-22T08:50:14;19.75;;;11.77;;
33864;SDS011;20159;51.072;13.526;2023-02-22T08:52:51;15.88;;;11.98;;
33864;SDS011;20159;51.072;13.526;2023-02-22T08:55:18;14.13;;;11.50;;
33864;SDS011;20159;51.072;13.526;2023-02-22T08:57:45;15.27;;;12.02;;
33864;SDS011;20159;51.072;13.526;2023-02-22T09:00:11;16.02;;;13.13;;
33864;SDS011;20159;51.072;13.526;2023-02-22T09:02:37;16.42;;;13.10;;
33864;SDS011;20159;51.072;13.526;2023-02-22T09:05:02;17.13;;;12.90;;
33864;SDS011;20159;51.072;13.526;2023-02-22T09:07:29;17.60;;;13.05;;
33864;SDS011;20159;51.072;13.526;2023-02-22T09:09:55;18.15;;;12.68;;
33864;SDS011;20159;51.072;13.526;2023-02-22T09:12:20;15.23;;;12.25;;
33864;SDS011;20159;51.072;13.526;2023-02-22T09:14:46;13.77;;;12.23;;
33864;SDS011;20159;51.072;13.526;2023-02-22T09:17:11;15.23;;;12.13;;
33864;SDS011;20159;51.072;13.526;2023-02-22T09:19:37;16.88;;;12.30;;
33864;SDS011;20159;51.072;13.526;2023-02-22T09:22:02;15.02;;;12.38;;
33864;SDS011;20159;51.072;13.526;2023-02-22T09:24:28;14.98;;;12.25;;
33864;SDS011;20159;51.072;13.526;2023-02-22T09:26:53;16.70;;;12.35;;
33864;SDS011;20159;51.072;13.526;2023-02-22T09:29:19;16.40;;;12.20;;
33864;SDS011;20159;51.072;13.526;2023-02-22T09:31:50;14.88;;;11.25;;
33864;SDS011;20159;51.072;13.526;2023-02-22T09:34:17;14.02;;;11.02;;
33864;SDS011;20159;51.072;13.526;2023-02-22T09:36:47;11.80;;;9.70;;
33864;SDS011;20159;51.072;13.526;2023-02-22T09:39:14;12.10;;;10.05;;
33864;SDS011;20159;51.072;13.526;2023-02-22T09:44:19;11.20;;;9.68;;
33864;SDS011;20159;51.072;13.526;2023-02-22T09:46:52;11.25;;;9.55;;
33864;SDS011;20159;51.072;13.526;2023-02-22T09:49:22;12.32;;;9.75;;
33864;SDS011;20159;51.072;13.526;2023-02-22T09:52:16;10.10;;;8.82;;
33864;SDS011;20159;51.072;13.526;2023-02-22T09:54:51;10.10;;;8.57;;
33864;SDS011;20159;51.072;13.526;2023-02-22T09:57:26;11.50;;;8.88;;
33864;SDS011;20159;51.072;13.526;2023-02-22T10:00:17;15.60;;;8.77;;
33864;SDS011;20159;51.072;13.526;2023-02-22T10:03:28;11.55;;;9.02;;
33864;SDS011;20159;51.072;13.526;2023-02-22T10:05:28;11.73;;;9.70;;
33864;SDS011;20159;51.072;13.526;2023-02-22T10:07:58;10.52;;;8.63;;
33864;SDS011;20159;51.072;13.526;2023-02-22T10:10:30;10.75;;;8.32;;
33864;SDS011;20159;51.072;13.526;2023-02-22T10:13:21;10.32;;;8.40;;
33864;SDS011;20159;51.072;13.526;2023-02-22T10:16:05;11.48;;;8.60;;
33864;SDS011;20159;51.072;13.526;2023-02-22T10:18:52;9.02;;;7.90;;
33864;SDS011;20159;51.072;13.526;2023-02-22T10:21:50;10.02;;;8.73;;
33864;SDS011;20159;51.072;13.526;2023-02-22T10:27:05;11.02;;;8.73;;
33864;SDS011;20159;51.072;13.526;2023-02-22T10:29:35;9.35;;;8.35;;
33864;SDS011;20159;51.072;13.526;2023-02-22T10:32:14;9.43;;;8.10;;
33864;SDS011;20159;51.072;13.526;2023-02-22T10:34:51;9.82;;;8.30;;
33864;SDS011;20159;51.072;13.526;2023-02-22T10:37:23;9.68;;;7.85;;
33864;SDS011;20159;51.072;13.526;2023-02-22T10:39:58;10.23;;;8.63;;
33864;SDS011;20159;51.072;13.526;2023-02-22T10:42:47;9.90;;;8.20;;
33864;SDS011;20159;51.072;13.526;2023-02-22T10:45:19;8.98;;;7.95;;
33864;SDS011;20159;51.072;13.526;2023-02-22T10:47:47;9.10;;;7.30;;
33864;SDS011;20159;51.072;13.526;2023-02-22T10:50:14;10.07;;;6.90;;
33864;SDS011;20159;51.072;13.526;2023-02-22T10:52:40;9.88;;;8.27;;
33864;SDS011;20159;51.072;13.526;2023-02-22T10:55:11;10.52;;;7.88;;
33864;SDS011;20159;51.072;13.526;2023-02-22T10:57:37;10.50;;;8.85;;
33864;SDS011;20159;51.072;13.526;2023-02-22T11:00:39;9.40;;;8.35;;
33864;SDS011;20159;51.072;13.526;2023-02-22T11:03:04;10.32;;;7.22;;
33864;SDS011;20159;51.072;13.526;2023-02-22T11:05:44;7.22;;;6.50;;
33864;SDS011;20159;51.072;13.526;2023-02-22T11:10:53;7.75;;;7.00;;
33864;SDS011;20159;51.072;13.526;2023-02-22T11:13:28;8.27;;;7.38;;
33864;SDS011;20159;51.072;13.526;2023-02-22T11:16:15;8.05;;;7.18;;
33864;SDS011;20159;51.072;13.526;2023-02-22T11:18:43;8.88;;;7.97;;
33864;SDS011;20159;51.072;13.526;2023-02-22T11:21:11;8.73;;;7.03;;
33864;SDS011;20159;51.072;13.526;2023-02-22T11:23:40;8.15;;;7.05;;
33864;SDS011;20159;51.072;13.526;2023-02-22T11:26:08;8.15;;;6.55;;
33864;SDS011;20159;51.072;13.526;2023-02-22T11:28:41;8.32;;;7.53;;
33864;SDS011;20159;51.072;13.526;2023-02-22T11:33:39;8.50;;;7.60;;
33864;SDS011;20159;51.072;13.526;2023-02-22T11:36:28;9.40;;;7.97;;
33864;SDS011;20159;51.072;13.526;2023-02-22T11:39:02;8.93;;;7.95;;
33864;SDS011;20159;51.072;13.526;2023-02-22T11:41:30;9.20;;;8.25;;
33864;SDS011;20159;51.072;13.526;2023-02-22T11:44:20;6.80;;;4.72;;
33864;SDS011;20159;51.072;13.526;2023-02-22T11:46:49;5.55;;;4.20;;
33864;SDS011;20159;51.072;13.526;2023-02-22T11:49:19;6.22;;;5.10;;
33864;SDS011;20159;51.072;13.526;2023-02-22T11:57:39;4.28;;;3.80;;
33864;SDS011;20159;51.072;13.526;2023-02-22T12:13:21;5.20;;;4.50;;
33864;SDS011;20159;51.072;13.526;2023-02-22T12:16:10;4.88;;;3.83;;
33864;SDS011;20159;51.072;13.526;2023-02-22T12:21:29;5.03;;;4.53;;
33864;SDS011;20159;51.072;13.526;2023-02-22T12:26:35;4.88;;;3.97;;
33864;SDS011;20159;51.072;13.526;2023-02-22T12:29:05;5.18;;;4.50;;
33864;SDS011;20159;51.072;13.526;2023-02-22T12:31:40;8.30;;;4.90;;
33864;SDS011;20159;51.072;13.526;2023-02-22T12:42:16;8.30;;;7.18;;
33864;SDS011;20159;51.072;13.526;2023-02-22T12:44:54;8.50;;;7.35;;
33864;SDS011;20159;51.072;13.526;2023-02-22T12:47:28;10.10;;;8.07;;
33864;SDS011;20159;51.072;13.526;2023-02-22T12:50:09;8.05;;;7.25;;
33864;SDS011;20159;51.072;13.526;2023-02-22T12:55:31;8.63;;;7.30;;
33864;SDS011;20159;51.072;13.526;2023-02-22T13:01:01;8.43;;;6.88;;
33864;SDS011;20159;51.072;13.526;2023-02-22T13:03:32;7.43;;;6.68;;
33864;SDS011;20159;51.072;13.526;2023-02-22T13:06:24;9.40;;;7.43;;
33864;SDS011;20159;51.072;13.526;2023-02-22T13:09:04;9.95;;;7.65;;
33864;SDS011;20159;51.072;13.526;2023-02-22T13:14:34;9.52;;;7.70;;
33864;SDS011;20159;51.072;13.526;2023-02-22T13:17:13;8.98;;;7.43;;
33864;SDS011;20159;51.072;13.526;2023-02-22T13:19:50;9.48;;;7.47;;
33864;SDS011;20159;51.072;13.526;2023-02-22T13:22:26;7.93;;;7.13;;
33864;SDS011;20159;51.072;13.526;2023-02-22T13:25:07;8.20;;;6.90;;
33864;SDS011;20159;51.072;13.526;2023-02-22T13:27:58;8.55;;;7.15;;
33864;SDS011;20159;51.072;13.526;2023-02-22T13:30:35;8.15;;;7.32;;
33864;SDS011;20159;51.072;13.526;2023-02-22T13:33:13;8.93;;;7.07;;
33864;SDS011;20159;51.072;13.526;2023-02-22T13:47:22;7.80;;;7.03;;
33864;SDS011;20159;51.072;13.526;2023-02-22T13:50:27;7.53;;;6.65;;
33864;SDS011;20159;51.072;13.526;2023-02-22T13:53:15;7.88;;;6.85;;
33864;SDS011;20159;51.072;13.526;2023-02-22T13:55:50;8.35;;;6.80;;
33864;SDS011;20159;51.072;13.526;2023-02-22T13:58:18;8.77;;;7.38;;
33864;SDS011;20159;51.072;13.526;2023-02-22T14:00:55;8.43;;;7.28;;
33864;SDS011;20159;51.072;13.526;2023-02-22T14:06:07;7.60;;;6.80;;
33864;SDS011;20159;51.072;13.526;2023-02-22T14:11:00;7.47;;;6.60;;
33864;SDS011;20159;51.072;13.526;2023-02-22T14:13:30;7.32;;;6.45;;
33864;SDS011;20159;51.072;13.526;2023-02-22T14:16:18;6.88;;;6.13;;
33864;SDS011;20159;51.072;13.526;2023-02-22T14:18:47;9.35;;;7.43;;
33864;SDS011;20159;51.072;13.526;2023-02-22T14:21:23;7.45;;;6.55;;
33864;SDS011;20159;51.072;13.526;2023-02-22T14:23:50;6.85;;;5.50;;
33864;SDS011;20159;51.072;13.526;2023-02-22T14:28:57;7.07;;;6.15;;
33864;SDS011;20159;51.072;13.526;2023-02-22T14:31:54;6.57;;;5.88;;
33864;SDS011;20159;51.072;13.526;2023-02-22T14:37:13;7.10;;;6.40;;
33864;SDS011;20159;51.072;13.526;2023-02-22T14:42:40;7.55;;;5.97;;
33864;SDS011;20159;51.072;13.526;2023-02-22T14:45:28;7.45;;;6.40;;
33864;SDS011;20159;51.072;13.526;2023-02-22T14:50:52;6.55;;;5.80;;
33864;SDS011;20159;51.072;13.526;2023-02-22T14:53:42;6.43;;;5.60;;
33864;SDS011;20159;51.072;13.526;2023-02-22T14:56:14;6.85;;;6.15;;
33864;SDS011;20159;51.072;13.526;2023-02-22T15:01:40;6.55;;;5.85;;
33864;SDS011;20159;51.072;13.526;2023-02-22T15:06:45;6.35;;;5.75;;
33864;SDS011;20159;51.072;13.526;2023-02-22T15:09:16;7.53;;;6.70;;
33864;SDS011;20159;51.072;13.526;2023-02-22T15:11:48;7.13;;;6.43;;
33864;SDS011;20159;51.072;13.526;2023-02-22T15:14:17;8.40;;;7.28;;
33864;SDS011;20159;51.072;13.526;2023-02-22T15:16:46;9.70;;;7.90;;
33864;SDS011;20159;51.072;13.526;2023-02-22T15:19:25;8.10;;;6.80;;
33864;SDS011;20159;51.072;13.526;2023-02-22T15:21:54;7.15;;;6.45;;
33864;SDS011;20159;51.072;13.526;2023-02-22T15:24:24;7.88;;;7.07;;
33864;SDS011;20159;51.072;13.526;2023-02-22T15:26:53;6.88;;;6.07;;
33864;SDS011;20159;51.072;13.526;2023-02-22T15:29:21;8.60;;;6.88;;
33864;SDS011;20159;51.072;13.526;2023-02-22T15:31:55;7.40;;;6.60;;
33864;SDS011;20159;51.072;13.526;2023-02-22T15:36:51;6.88;;;6.18;;
33864;SDS011;20159;51.072;13.526;2023-02-22T15:39:22;7.32;;;6.18;;
33864;SDS011;20159;51.072;13.526;2023-02-22T15:44:38;6.82;;;6.13;;
33864;SDS011;20159;51.072;13.526;2023-02-22T15:47:05;8.18;;;6.68;;
33864;SDS011;20159;51.072;13.526;2023-02-22T15:49:41;6.95;;;6.03;;
33864;SDS011;20159;51.072;13.526;2023-02-22T15:52:28;6.55;;;5.85;;
33864;SDS011;20159;51.072;13.526;2023-02-22T15:54:55;6.45;;;5.70;;
33864;SDS011;20159;51.072;13.526;2023-02-22T15:57:21;9.70;;;6.07;;
33864;SDS011;20159;51.072;13.526;2023-02-22T15:59:50;7.97;;;5.90;;
33864;SDS011;20159;51.072;13.526;2023-02-22T16:02:32;6.93;;;5.53;;
33864;SDS011;20159;51.072;13.526;2023-02-22T16:05:03;8.27;;;5.97;;
33864;SDS011;20159;51.072;13.526;2023-02-22T16:07:36;7.03;;;6.03;;
33864;SDS011;20159;51.072;13.526;2023-02-22T16:10:14;6.05;;;5.45;;
33864;SDS011;20159;51.072;13.526;2023-02-22T16:13:01;6.47;;;5.78;;
33864;SDS011;20159;51.072;13.526;2023-02-22T16:15:42;6.75;;;6.05;;
33864;SDS011;20159;51.072;13.526;2023-02-22T16:18:28;7.07;;;6.38;;
33864;SDS011;20159;51.072;13.526;2023-02-22T16:20:59;8.43;;;7.55;;
33864;SDS011;20159;51.072;13.526;2023-02-22T16:23:26;9.85;;;8.30;;
33864;SDS011;20159;51.072;13.526;2023-02-22T16:29:03;13.48;;;10.73;;
33864;SDS011;20159;51.072;13.526;2023-02-22T16:31:32;12.98;;;10.88;;
33864;SDS011;20159;51.072;13.526;2023-02-22T16:34:01;13.35;;;10.70;;
33864;SDS011;20159;51.072;13.526;2023-02-22T16:36:44;13.13;;;10.73;;
33864;SDS011;20159;51.072;13.526;2023-02-22T16:39:13;12.23;;;9.88;;